sensor_id;sensor_type;location;lat;lon;timestamp;P1;durP1;ratioP1;P2;durP2;ratioP2
2019;SDS011;1014;51.960;8.542;2023-08-21T00:00:13;21.20;;;19.60;;
2019;SDS011;1014;51.960;8.542;2023-08-21T00:02:41;21.20;;;19.90;;
2019;SDS011;1014;51.960;8.542;2023-08-21T00:05:09;22.17;;;20.57;;
2019;SDS011;1014;51.960;8.542;2023-08-21T00:07:36;22.10;;;20.73;;
2019;SDS011;1014;51.960;8.542;2023-08-21T00:10:03;22.30;;;20.73;;
2019;SDS011;1014;51.960;8.542;2023-08-21T00:12:30;22.03;;;20.73;;
2019;SDS011;1014;51.960;8.542;2023-08-21T00:14:57;21.03;;;19.80;;
2019;SDS011;1014;51.960;8.542;2023-08-21T00:17:24;21.97;;;20.67;;
2019;SDS011;1014;51.960;8.542;2023-08-21T00:19:52;22.50;;;21.00;;
2019;SDS011;1014;51.960;8.542;2023-08-21T00:22:19;22.60;;;21.10;;
2019;SDS011;1014;51.960;8.542;2023-08-21T00:24:46;21.93;;;20.53;;
2019;SDS011;1014;51.960;8.542;2023-08-21T00:27:13;22.40;;;21.10;;
2019;SDS011;1014;51.960;8.542;2023-08-21T00:29:40;21.80;;;20.40;;
2019;SDS011;1014;51.960;8.542;2023-08-21T00:32:08;21.77;;;20.23;;
2019;SDS011;1014;51.960;8.542;2023-08-21T00:34:37;22.10;;;20.70;;
2019;SDS011;1014;51.960;8.542;2023-08-21T00:37:05;22.07;;;20.77;;
2019;SDS011;1014;51.960;8.542;2023-08-21T00:39:32;21.57;;;20.07;;
2019;SDS011;1014;51.960;8.542;2023-08-21T00:41:59;22.67;;;21.00;;
2019;SDS011;1014;51.960;8.542;2023-08-21T00:44:26;22.60;;;21.00;;
2019;SDS011;1014;51.960;8.542;2023-08-21T00:46:53;21.70;;;19.93;;
2019;SDS011;1014;51.960;8.542;2023-08-21T00:49:20;21.50;;;20.10;;
2019;SDS011;1014;51.960;8.542;2023-08-21T00:51:47;22.07;;;20.50;;
2019;SDS011;1014;51.960;8.542;2023-08-21T00:54:16;21.50;;;20.10;;
2019;SDS011;1014;51.960;8.542;2023-08-21T00:56:44;21.90;;;20.60;;
2019;SDS011;1014;51.960;8.542;2023-08-21T00:59:11;21.93;;;20.27;;
2019;SDS011;1014;51.960;8.542;2023-08-21T01:01:38;21.53;;;20.23;;
2019;SDS011;1014;51.960;8.542;2023-08-21T01:04:05;21.20;;;19.90;;
2019;SDS011;1014;51.960;8.542;2023-08-21T01:06:33;21.70;;;20.30;;
2019;SDS011;1014;51.960;8.542;2023-08-21T01:09:00;21.67;;;20.37;;
2019;SDS011;1014;51.960;8.542;2023-08-21T01:11:34;21.20;;;20.00;;
2019;SDS011;1014;51.960;8.542;2023-08-21T01:14:03;20.70;;;19.57;;
2019;SDS011;1014;51.960;8.542;2023-08-21T01:16:33;21.57;;;20.17;;
2019;SDS011;1014;51.960;8.542;2023-08-21T01:19:00;20.90;;;19.50;;
2019;SDS011;1014;51.960;8.542;2023-08-21T01:21:28;21.27;;;19.97;;
2019;SDS011;1014;51.960;8.542;2023-08-21T01:23:57;20.63;;;19.43;;
2019;SDS011;1014;51.960;8.542;2023-08-21T01:26:24;21.03;;;19.63;;
2019;SDS011;1014;51.960;8.542;2023-08-21T01:28:51;20.60;;;19.33;;
2019;SDS011;1014;51.960;8.542;2023-08-21T01:31:19;20.40;;;19.17;;
2019;SDS011;1014;51.960;8.542;2023-08-21T01:33:47;22.00;;;20.53;;
2019;SDS011;1014;51.960;8.542;2023-08-21T01:36:15;21.77;;;20.27;;
2019;SDS011;1014;51.960;8.542;2023-08-21T01:38:42;21.40;;;19.90;;
2019;SDS011;1014;51.960;8.542;2023-08-21T01:41:11;20.60;;;19.37;;
2019;SDS011;1014;51.960;8.542;2023-08-21T01:43:38;20.83;;;19.43;;
2019;SDS011;1014;51.960;8.542;2023-08-21T01:46:05;21.37;;;19.97;;
2019;SDS011;1014;51.960;8.542;2023-08-21T01:48:33;19.93;;;18.73;;
2019;SDS011;1014;51.960;8.542;2023-08-21T01:51:00;20.57;;;19.47;;
2019;SDS011;1014;51.960;8.542;2023-08-21T01:53:27;20.27;;;19.13;;
2019;SDS011;1014;51.960;8.542;2023-08-21T01:55:54;20.33;;;19.03;;
2019;SDS011;1014;51.960;8.542;2023-08-21T01:58:23;20.67;;;19.37;;
2019;SDS011;1014;51.960;8.542;2023-08-21T02:00:50;20.90;;;19.50;;
2019;SDS011;1014;51.960;8.542;2023-08-21T02:03:17;20.70;;;19.30;;
2019;SDS011;1014;51.960;8.542;2023-08-21T02:05:44;21.27;;;19.70;;
2019;SDS011;1014;51.960;8.542;2023-08-21T02:08:12;21.40;;;20.00;;
2019;SDS011;1014;51.960;8.542;2023-08-21T02:10:46;20.97;;;19.57;;
2019;SDS011;1014;51.960;8.542;2023-08-21T02:13:13;20.53;;;19.33;;
2019;SDS011;1014;51.960;8.542;2023-08-21T02:15:42;20.23;;;19.03;;
2019;SDS011;1014;51.960;8.542;2023-08-21T02:18:09;20.73;;;19.40;;
2019;SDS011;1014;51.960;8.542;2023-08-21T02:20:36;20.77;;;19.37;;
2019;SDS011;1014;51.960;8.542;2023-08-21T02:23:03;20.40;;;19.23;;
2019;SDS011;1014;51.960;8.542;2023-08-21T02:25:31;20.40;;;19.30;;
2019;SDS011;1014;51.960;8.542;2023-08-21T02:27:58;21.10;;;19.63;;
2019;SDS011;1014;51.960;8.542;2023-08-21T02:30:27;20.30;;;19.10;;
2019;SDS011;1014;51.960;8.542;2023-08-21T02:32:55;19.90;;;18.70;;
2019;SDS011;1014;51.960;8.542;2023-08-21T02:35:22;19.43;;;18.33;;
2019;SDS011;1014;51.960;8.542;2023-08-21T02:37:49;20.13;;;18.93;;
2019;SDS011;1014;51.960;8.542;2023-08-21T02:40:16;20.40;;;18.97;;
2019;SDS011;1014;51.960;8.542;2023-08-21T02:42:44;20.57;;;19.07;;
2019;SDS011;1014;51.960;8.542;2023-08-21T02:45:11;20.27;;;19.07;;
2019;SDS011;1014;51.960;8.542;2023-08-21T02:47:38;20.07;;;18.97;;
2019;SDS011;1014;51.960;8.542;2023-08-21T02:50:07;20.90;;;19.60;;
2019;SDS011;1014;51.960;8.542;2023-08-21T02:52:35;20.00;;;18.80;;
2019;SDS011;1014;51.960;8.542;2023-08-21T02:55:02;20.87;;;19.53;;
2019;SDS011;1014;51.960;8.542;2023-08-21T02:57:30;20.57;;;19.30;;
2019;SDS011;1014;51.960;8.542;2023-08-21T02:59:57;20.57;;;19.27;;
2019;SDS011;1014;51.960;8.542;2023-08-21T03:02:24;20.93;;;19.70;;
2019;SDS011;1014;51.960;8.542;2023-08-21T03:04:51;20.27;;;18.97;;
2019;SDS011;1014;51.960;8.542;2023-08-21T03:07:20;20.93;;;19.43;;
2019;SDS011;1014;51.960;8.542;2023-08-21T03:09:47;20.30;;;19.00;;
2019;SDS011;1014;51.960;8.542;2023-08-21T03:12:14;20.07;;;18.80;;
2019;SDS011;1014;51.960;8.542;2023-08-21T03:14:41;21.20;;;19.47;;
2019;SDS011;1014;51.960;8.542;2023-08-21T03:17:08;20.57;;;19.27;;
2019;SDS011;1014;51.960;8.542;2023-08-21T03:19:35;20.70;;;19.40;;
2019;SDS011;1014;51.960;8.542;2023-08-21T03:22:02;20.20;;;18.87;;
2019;SDS011;1014;51.960;8.542;2023-08-21T03:24:31;19.83;;;18.63;;
2019;SDS011;1014;51.960;8.542;2023-08-21T03:26:58;19.77;;;18.47;;
2019;SDS011;1014;51.960;8.542;2023-08-21T03:29:25;20.50;;;19.10;;
2019;SDS011;1014;51.960;8.542;2023-08-21T03:31:52;20.33;;;19.03;;
2019;SDS011;1014;51.960;8.542;2023-08-21T03:34:20;20.80;;;19.50;;
2019;SDS011;1014;51.960;8.542;2023-08-21T03:36:47;20.00;;;18.80;;
2019;SDS011;1014;51.960;8.542;2023-08-21T03:39:14;20.50;;;19.40;;
2019;SDS011;1014;51.960;8.542;2023-08-21T03:41:42;20.77;;;19.37;;
2019;SDS011;1014;51.960;8.542;2023-08-21T03:44:09;20.80;;;19.50;;
2019;SDS011;1014;51.960;8.542;2023-08-21T03:46:36;21.30;;;19.90;;
2019;SDS011;1014;51.960;8.542;2023-08-21T03:49:03;21.30;;;20.10;;
2019;SDS011;1014;51.960;8.542;2023-08-21T03:51:30;20.63;;;19.27;;
2019;SDS011;1014;51.960;8.542;2023-08-21T03:53:58;21.93;;;20.30;;
2019;SDS011;1014;51.960;8.542;2023-08-21T03:56:25;19.90;;;18.80;;
2019;SDS011;1014;51.960;8.542;2023-08-21T03:58:53;20.77;;;19.47;;
2019;SDS011;1014;51.960;8.542;2023-08-21T04:01:21;20.53;;;19.20;;
2019;SDS011;1014;51.960;8.542;2023-08-21T04:03:48;20.43;;;19.13;;
2019;SDS011;1014;51.960;8.542;2023-08-21T04:06:15;20.40;;;19.10;;
2019;SDS011;1014;51.960;8.542;2023-08-21T04:08:42;20.10;;;18.90;;
2019;SDS011;1014;51.960;8.542;2023-08-21T04:11:09;20.70;;;19.37;;
2019;SDS011;1014;51.960;8.542;2023-08-21T04:13:36;19.70;;;18.40;;
2019;SDS011;1014;51.960;8.542;2023-08-21T04:16:04;20.10;;;18.70;;
2019;SDS011;1014;51.960;8.542;2023-08-21T04:18:31;20.20;;;19.00;;
2019;SDS011;1014;51.960;8.542;2023-08-21T04:20:58;20.37;;;18.90;;
2019;SDS011;1014;51.960;8.542;2023-08-21T04:23:26;19.20;;;17.83;;
2019;SDS011;1014;51.960;8.542;2023-08-21T04:25:53;20.13;;;18.60;;
2019;SDS011;1014;51.960;8.542;2023-08-21T04:28:20;21.67;;;19.40;;
2019;SDS011;1014;51.960;8.542;2023-08-21T04:30:47;19.67;;;18.47;;
2019;SDS011;1014;51.960;8.542;2023-08-21T04:33:15;21.00;;;19.50;;
2019;SDS011;1014;51.960;8.542;2023-08-21T04:35:42;20.63;;;19.30;;
2019;SDS011;1014;51.960;8.542;2023-08-21T04:38:09;20.73;;;19.20;;
2019;SDS011;1014;51.960;8.542;2023-08-21T04:40:37;20.23;;;18.90;;
2019;SDS011;1014;51.960;8.542;2023-08-21T04:43:04;20.13;;;18.93;;
2019;SDS011;1014;51.960;8.542;2023-08-21T04:45:31;19.23;;;18.13;;
2019;SDS011;1014;51.960;8.542;2023-08-21T04:47:58;19.60;;;18.30;;
2019;SDS011;1014;51.960;8.542;2023-08-21T04:50:26;19.27;;;18.27;;
2019;SDS011;1014;51.960;8.542;2023-08-21T04:52:53;21.00;;;19.50;;
2019;SDS011;1014;51.960;8.542;2023-08-21T04:55:20;20.87;;;19.50;;
2019;SDS011;1014;51.960;8.542;2023-08-21T04:57:47;19.80;;;18.60;;
2019;SDS011;1014;51.960;8.542;2023-08-21T05:00:15;20.60;;;19.30;;
2019;SDS011;1014;51.960;8.542;2023-08-21T05:02:42;20.20;;;19.00;;
2019;SDS011;1014;51.960;8.542;2023-08-21T05:05:09;20.20;;;19.10;;
2019;SDS011;1014;51.960;8.542;2023-08-21T05:07:38;20.03;;;18.83;;
2019;SDS011;1014;51.960;8.542;2023-08-21T05:10:05;19.77;;;18.27;;
2019;SDS011;1014;51.960;8.542;2023-08-21T05:12:32;19.30;;;18.20;;
2019;SDS011;1014;51.960;8.542;2023-08-21T05:15:00;19.93;;;18.63;;
2019;SDS011;1014;51.960;8.542;2023-08-21T05:17:27;19.03;;;17.67;;
2019;SDS011;1014;51.960;8.542;2023-08-21T05:19:54;19.90;;;18.70;;
2019;SDS011;1014;51.960;8.542;2023-08-21T05:22:21;19.50;;;18.40;;
2019;SDS011;1014;51.960;8.542;2023-08-21T05:24:50;19.63;;;18.53;;
2019;SDS011;1014;51.960;8.542;2023-08-21T05:27:17;19.53;;;18.43;;
2019;SDS011;1014;51.960;8.542;2023-08-21T05:29:44;20.20;;;18.90;;
2019;SDS011;1014;51.960;8.542;2023-08-21T05:32:11;20.03;;;18.83;;
2019;SDS011;1014;51.960;8.542;2023-08-21T05:34:38;20.10;;;18.83;;
2019;SDS011;1014;51.960;8.542;2023-08-21T05:37:05;19.67;;;18.57;;
2019;SDS011;1014;51.960;8.542;2023-08-21T05:39:32;20.13;;;19.03;;
2019;SDS011;1014;51.960;8.542;2023-08-21T05:42:01;20.07;;;18.87;;
2019;SDS011;1014;51.960;8.542;2023-08-21T05:44:28;19.70;;;18.40;;
2019;SDS011;1014;51.960;8.542;2023-08-21T05:46:56;19.40;;;18.30;;
2019;SDS011;1014;51.960;8.542;2023-08-21T05:49:23;20.10;;;18.90;;
2019;SDS011;1014;51.960;8.542;2023-08-21T05:51:50;20.23;;;18.93;;
2019;SDS011;1014;51.960;8.542;2023-08-21T05:54:18;20.00;;;18.60;;
2019;SDS011;1014;51.960;8.542;2023-08-21T05:56:45;19.73;;;18.53;;
2019;SDS011;1014;51.960;8.542;2023-08-21T05:59:20;19.80;;;18.70;;
2019;SDS011;1014;51.960;8.542;2023-08-21T06:01:53;20.00;;;18.70;;
2019;SDS011;1014;51.960;8.542;2023-08-21T06:04:20;20.23;;;18.77;;
2019;SDS011;1014;51.960;8.542;2023-08-21T06:06:47;19.50;;;18.30;;
2019;SDS011;1014;51.960;8.542;2023-08-21T06:09:14;19.30;;;18.10;;
2019;SDS011;1014;51.960;8.542;2023-08-21T06:11:42;19.60;;;18.47;;
2019;SDS011;1014;51.960;8.542;2023-08-21T06:14:11;18.70;;;17.60;;
2019;SDS011;1014;51.960;8.542;2023-08-21T06:16:40;19.50;;;18.30;;
2019;SDS011;1014;51.960;8.542;2023-08-21T06:19:08;19.93;;;18.60;;
2019;SDS011;1014;51.960;8.542;2023-08-21T06:21:36;20.30;;;19.00;;
2019;SDS011;1014;51.960;8.542;2023-08-21T06:24:03;19.67;;;18.20;;
2019;SDS011;1014;51.960;8.542;2023-08-21T06:26:30;19.50;;;18.30;;
2019;SDS011;1014;51.960;8.542;2023-08-21T06:28:57;18.90;;;17.80;;
2019;SDS011;1014;51.960;8.542;2023-08-21T06:31:24;20.37;;;18.97;;
2019;SDS011;1014;51.960;8.542;2023-08-21T06:33:55;19.87;;;18.60;;
2019;SDS011;1014;51.960;8.542;2023-08-21T06:36:22;19.90;;;18.70;;
2019;SDS011;1014;51.960;8.542;2023-08-21T06:38:49;21.27;;;19.60;;
2019;SDS011;1014;51.960;8.542;2023-08-21T06:41:16;19.80;;;18.70;;
2019;SDS011;1014;51.960;8.542;2023-08-21T06:43:43;19.53;;;18.40;;
2019;SDS011;1014;51.960;8.542;2023-08-21T06:46:10;21.00;;;19.40;;
2019;SDS011;1014;51.960;8.542;2023-08-21T06:48:39;20.33;;;18.73;;
2019;SDS011;1014;51.960;8.542;2023-08-21T06:51:08;20.63;;;19.07;;
2019;SDS011;1014;51.960;8.542;2023-08-21T06:53:35;20.27;;;19.10;;
2019;SDS011;1014;51.960;8.542;2023-08-21T06:56:02;21.00;;;19.70;;
2019;SDS011;1014;51.960;8.542;2023-08-21T06:58:29;20.67;;;19.57;;
2019;SDS011;1014;51.960;8.542;2023-08-21T07:00:56;21.17;;;19.87;;
2019;SDS011;1014;51.960;8.542;2023-08-21T07:03:24;20.80;;;19.57;;
2019;SDS011;1014;51.960;8.542;2023-08-21T07:05:54;21.17;;;19.80;;
2019;SDS011;1014;51.960;8.542;2023-08-21T07:08:23;21.13;;;19.93;;
2019;SDS011;1014;51.960;8.542;2023-08-21T07:10:50;21.50;;;20.37;;
2019;SDS011;1014;51.960;8.542;2023-08-21T07:13:17;22.30;;;20.87;;
2019;SDS011;1014;51.960;8.542;2023-08-21T07:15:45;22.30;;;20.90;;
2019;SDS011;1014;51.960;8.542;2023-08-21T07:18:12;21.97;;;20.00;;
2019;SDS011;1014;51.960;8.542;2023-08-21T07:20:39;21.77;;;20.57;;
2019;SDS011;1014;51.960;8.542;2023-08-21T07:23:06;21.20;;;19.93;;
2019;SDS011;1014;51.960;8.542;2023-08-21T07:25:35;21.53;;;20.10;;
2019;SDS011;1014;51.960;8.542;2023-08-21T07:28:02;21.17;;;19.97;;
2019;SDS011;1014;51.960;8.542;2023-08-21T07:30:29;21.47;;;20.37;;
2019;SDS011;1014;51.960;8.542;2023-08-21T07:32:56;21.50;;;20.10;;
2019;SDS011;1014;51.960;8.542;2023-08-21T07:35:23;21.17;;;19.83;;
2019;SDS011;1014;51.960;8.542;2023-08-21T07:37:50;21.17;;;19.80;;
2019;SDS011;1014;51.960;8.542;2023-08-21T07:40:18;21.37;;;20.00;;
2019;SDS011;1014;51.960;8.542;2023-08-21T07:42:46;21.67;;;20.37;;
2019;SDS011;1014;51.960;8.542;2023-08-21T07:45:13;21.40;;;20.00;;
2019;SDS011;1014;51.960;8.542;2023-08-21T07:47:40;22.43;;;21.10;;
2019;SDS011;1014;51.960;8.542;2023-08-21T07:50:08;21.93;;;20.63;;
2019;SDS011;1014;51.960;8.542;2023-08-21T07:52:36;22.83;;;21.43;;
2019;SDS011;1014;51.960;8.542;2023-08-21T07:55:03;21.67;;;20.20;;
2019;SDS011;1014;51.960;8.542;2023-08-21T07:57:30;22.27;;;20.60;;
2019;SDS011;1014;51.960;8.542;2023-08-21T07:59:59;22.40;;;20.90;;
2019;SDS011;1014;51.960;8.542;2023-08-21T08:02:26;23.10;;;21.70;;
2019;SDS011;1014;51.960;8.542;2023-08-21T08:04:53;23.30;;;21.73;;
2019;SDS011;1014;51.960;8.542;2023-08-21T08:07:21;22.30;;;20.80;;
2019;SDS011;1014;51.960;8.542;2023-08-21T08:09:48;21.80;;;20.40;;
2019;SDS011;1014;51.960;8.542;2023-08-21T08:12:16;22.57;;;21.07;;
2019;SDS011;1014;51.960;8.542;2023-08-21T08:14:43;21.83;;;20.53;;
2019;SDS011;1014;51.960;8.542;2023-08-21T08:17:11;22.90;;;21.30;;
2019;SDS011;1014;51.960;8.542;2023-08-21T08:19:38;21.27;;;20.03;;
2019;SDS011;1014;51.960;8.542;2023-08-21T08:22:05;21.60;;;20.20;;
2019;SDS011;1014;51.960;8.542;2023-08-21T08:24:32;22.93;;;21.10;;
2019;SDS011;1014;51.960;8.542;2023-08-21T08:26:59;22.40;;;21.10;;
2019;SDS011;1014;51.960;8.542;2023-08-21T08:29:26;21.93;;;20.53;;
2019;SDS011;1014;51.960;8.542;2023-08-21T08:31:54;22.70;;;21.30;;
2019;SDS011;1014;51.960;8.542;2023-08-21T08:34:22;21.80;;;20.30;;
2019;SDS011;1014;51.960;8.542;2023-08-21T08:36:49;22.30;;;20.87;;
2019;SDS011;1014;51.960;8.542;2023-08-21T08:39:16;22.40;;;20.60;;
2019;SDS011;1014;51.960;8.542;2023-08-21T08:41:44;21.97;;;20.47;;
2019;SDS011;1014;51.960;8.542;2023-08-21T08:44:15;23.63;;;21.93;;
2019;SDS011;1014;51.960;8.542;2023-08-21T08:46:43;22.87;;;21.27;;
2019;SDS011;1014;51.960;8.542;2023-08-21T08:49:10;22.93;;;21.30;;
2019;SDS011;1014;51.960;8.542;2023-08-21T08:51:39;22.67;;;21.10;;
2019;SDS011;1014;51.960;8.542;2023-08-21T08:54:08;22.10;;;20.43;;
2019;SDS011;1014;51.960;8.542;2023-08-21T08:56:36;23.20;;;21.73;;
2019;SDS011;1014;51.960;8.542;2023-08-21T08:59:05;23.27;;;21.57;;
2019;SDS011;1014;51.960;8.542;2023-08-21T09:01:32;23.33;;;21.20;;
2019;SDS011;1014;51.960;8.542;2023-08-21T09:04:00;23.20;;;21.50;;
2019;SDS011;1014;51.960;8.542;2023-08-21T09:06:27;23.50;;;21.77;;
2019;SDS011;1014;51.960;8.542;2023-08-21T09:08:56;23.03;;;21.27;;
2019;SDS011;1014;51.960;8.542;2023-08-21T09:11:23;22.83;;;21.03;;
2019;SDS011;1014;51.960;8.542;2023-08-21T09:13:50;23.00;;;21.40;;
2019;SDS011;1014;51.960;8.542;2023-08-21T09:16:18;23.70;;;22.00;;
2019;SDS011;1014;51.960;8.542;2023-08-21T09:18:48;22.77;;;21.23;;
2019;SDS011;1014;51.960;8.542;2023-08-21T09:21:16;22.60;;;21.23;;
2019;SDS011;1014;51.960;8.542;2023-08-21T09:23:43;24.10;;;22.20;;
2019;SDS011;1014;51.960;8.542;2023-08-21T09:26:12;23.67;;;21.90;;
2019;SDS011;1014;51.960;8.542;2023-08-21T09:28:45;21.77;;;20.43;;
2019;SDS011;1014;51.960;8.542;2023-08-21T09:31:12;22.80;;;21.03;;
2019;SDS011;1014;51.960;8.542;2023-08-21T09:33:39;22.60;;;21.03;;
2019;SDS011;1014;51.960;8.542;2023-08-21T09:36:07;22.03;;;20.63;;
2019;SDS011;1014;51.960;8.542;2023-08-21T09:38:37;23.20;;;21.40;;
2019;SDS011;1014;51.960;8.542;2023-08-21T09:41:04;20.97;;;19.67;;
2019;SDS011;1014;51.960;8.542;2023-08-21T09:43:35;21.00;;;19.50;;
2019;SDS011;1014;51.960;8.542;2023-08-21T09:46:07;21.80;;;20.37;;
2019;SDS011;1014;51.960;8.542;2023-08-21T09:48:35;22.63;;;21.23;;
2019;SDS011;1014;51.960;8.542;2023-08-21T09:51:03;21.60;;;20.10;;
2019;SDS011;1014;51.960;8.542;2023-08-21T09:53:30;21.90;;;20.40;;
2019;SDS011;1014;51.960;8.542;2023-08-21T09:55:57;22.27;;;20.60;;
2019;SDS011;1014;51.960;8.542;2023-08-21T09:58:28;21.97;;;20.53;;
2019;SDS011;1014;51.960;8.542;2023-08-21T10:00:59;23.17;;;21.43;;
2019;SDS011;1014;51.960;8.542;2023-08-21T10:03:27;23.70;;;22.00;;
2019;SDS011;1014;51.960;8.542;2023-08-21T10:05:56;23.53;;;21.93;;
2019;SDS011;1014;51.960;8.542;2023-08-21T10:08:25;22.23;;;20.90;;
2019;SDS011;1014;51.960;8.542;2023-08-21T10:10:52;23.07;;;21.67;;
2019;SDS011;1014;51.960;8.542;2023-08-21T10:13:20;23.37;;;21.87;;
2019;SDS011;1014;51.960;8.542;2023-08-21T10:15:47;22.50;;;21.00;;
2019;SDS011;1014;51.960;8.542;2023-08-21T10:18:20;22.60;;;21.00;;
2019;SDS011;1014;51.960;8.542;2023-08-21T10:20:48;23.23;;;21.60;;
2019;SDS011;1014;51.960;8.542;2023-08-21T10:23:26;23.13;;;21.03;;
2019;SDS011;1014;51.960;8.542;2023-08-21T10:25:54;24.53;;;22.80;;
2019;SDS011;1014;51.960;8.542;2023-08-21T10:28:21;23.80;;;22.20;;
2019;SDS011;1014;51.960;8.542;2023-08-21T10:30:48;23.03;;;21.53;;
2019;SDS011;1014;51.960;8.542;2023-08-21T10:33:16;22.77;;;21.27;;
2019;SDS011;1014;51.960;8.542;2023-08-21T10:35:46;24.10;;;22.30;;
2019;SDS011;1014;51.960;8.542;2023-08-21T10:38:13;22.50;;;21.00;;
2019;SDS011;1014;51.960;8.542;2023-08-21T10:43:37;22.30;;;20.90;;
2019;SDS011;1014;51.960;8.542;2023-08-21T10:46:04;22.27;;;20.83;;
2019;SDS011;1014;51.960;8.542;2023-08-21T10:48:31;23.53;;;21.87;;
2019;SDS011;1014;51.960;8.542;2023-08-21T10:51:00;23.07;;;21.50;;
2019;SDS011;1014;51.960;8.542;2023-08-21T10:53:28;23.90;;;22.30;;
2019;SDS011;1014;51.960;8.542;2023-08-21T10:55:55;22.97;;;21.37;;
2019;SDS011;1014;51.960;8.542;2023-08-21T10:58:22;23.00;;;21.20;;
2019;SDS011;1014;51.960;8.542;2023-08-21T11:00:55;23.47;;;21.57;;
2019;SDS011;1014;51.960;8.542;2023-08-21T11:03:22;23.50;;;21.70;;
2019;SDS011;1014;51.960;8.542;2023-08-21T11:06:00;23.30;;;21.60;;
2019;SDS011;1014;51.960;8.542;2023-08-21T11:08:28;22.80;;;21.30;;
2019;SDS011;1014;51.960;8.542;2023-08-21T11:10:55;22.87;;;21.30;;
2019;SDS011;1014;51.960;8.542;2023-08-21T11:13:23;23.00;;;21.20;;
2019;SDS011;1014;51.960;8.542;2023-08-21T11:15:57;23.53;;;21.93;;
2019;SDS011;1014;51.960;8.542;2023-08-21T11:18:29;23.07;;;21.40;;
2019;SDS011;1014;51.960;8.542;2023-08-21T11:21:04;22.90;;;21.30;;
2019;SDS011;1014;51.960;8.542;2023-08-21T11:23:34;22.07;;;20.67;;
2019;SDS011;1014;51.960;8.542;2023-08-21T11:26:01;23.20;;;21.60;;
2019;SDS011;1014;51.960;8.542;2023-08-21T11:28:29;22.83;;;21.27;;
2019;SDS011;1014;51.960;8.542;2023-08-21T11:30:56;22.40;;;21.00;;
2019;SDS011;1014;51.960;8.542;2023-08-21T11:33:25;22.77;;;21.37;;
2019;SDS011;1014;51.960;8.542;2023-08-21T11:35:52;23.43;;;21.47;;
2019;SDS011;1014;51.960;8.542;2023-08-21T11:38:21;23.40;;;21.70;;
2019;SDS011;1014;51.960;8.542;2023-08-21T11:40:51;23.23;;;21.43;;
2019;SDS011;1014;51.960;8.542;2023-08-21T11:43:18;23.67;;;21.97;;
2019;SDS011;1014;51.960;8.542;2023-08-21T11:45:45;23.10;;;21.40;;
2019;SDS011;1014;51.960;8.542;2023-08-21T11:48:12;23.57;;;22.00;;
2019;SDS011;1014;51.960;8.542;2023-08-21T11:50:40;24.07;;;22.27;;
2019;SDS011;1014;51.960;8.542;2023-08-21T11:53:07;23.33;;;21.40;;
2019;SDS011;1014;51.960;8.542;2023-08-21T11:55:37;22.97;;;21.40;;
2019;SDS011;1014;51.960;8.542;2023-08-21T11:58:05;24.30;;;22.00;;
2019;SDS011;1014;51.960;8.542;2023-08-21T12:00:32;23.43;;;21.83;;
2019;SDS011;1014;51.960;8.542;2023-08-21T12:03:00;25.50;;;23.07;;
2019;SDS011;1014;51.960;8.542;2023-08-21T12:05:31;22.87;;;21.33;;
2019;SDS011;1014;51.960;8.542;2023-08-21T12:07:58;21.73;;;20.47;;
2019;SDS011;1014;51.960;8.542;2023-08-21T12:10:26;23.67;;;21.77;;
2019;SDS011;1014;51.960;8.542;2023-08-21T12:12:55;22.67;;;21.07;;
2019;SDS011;1014;51.960;8.542;2023-08-21T12:15:22;23.30;;;21.63;;
2019;SDS011;1014;51.960;8.542;2023-08-21T12:17:49;22.97;;;21.37;;
2019;SDS011;1014;51.960;8.542;2023-08-21T12:20:16;22.17;;;20.77;;
2019;SDS011;1014;51.960;8.542;2023-08-21T12:22:43;22.40;;;20.67;;
2019;SDS011;1014;51.960;8.542;2023-08-21T12:25:10;23.57;;;21.97;;
2019;SDS011;1014;51.960;8.542;2023-08-21T12:27:38;23.50;;;21.90;;
2019;SDS011;1014;51.960;8.542;2023-08-21T12:30:07;22.90;;;20.83;;
2019;SDS011;1014;51.960;8.542;2023-08-21T12:32:34;22.43;;;20.67;;
2019;SDS011;1014;51.960;8.542;2023-08-21T12:35:01;23.03;;;21.50;;
2019;SDS011;1014;51.960;8.542;2023-08-21T12:37:29;23.40;;;21.80;;
2019;SDS011;1014;51.960;8.542;2023-08-21T12:39:56;21.80;;;20.30;;
2019;SDS011;1014;51.960;8.542;2023-08-21T12:42:23;21.30;;;19.90;;
2019;SDS011;1014;51.960;8.542;2023-08-21T12:44:50;22.77;;;20.90;;
2019;SDS011;1014;51.960;8.542;2023-08-21T12:47:19;22.07;;;20.67;;
2019;SDS011;1014;51.960;8.542;2023-08-21T12:49:46;23.13;;;21.37;;
2019;SDS011;1014;51.960;8.542;2023-08-21T12:52:13;23.50;;;21.90;;
2019;SDS011;1014;51.960;8.542;2023-08-21T12:54:40;23.50;;;21.87;;
2019;SDS011;1014;51.960;8.542;2023-08-21T12:57:08;22.93;;;21.43;;
2019;SDS011;1014;51.960;8.542;2023-08-21T12:59:36;23.53;;;21.63;;
2019;SDS011;1014;51.960;8.542;2023-08-21T13:02:03;23.43;;;21.60;;
2019;SDS011;1014;51.960;8.542;2023-08-21T13:04:31;23.57;;;21.87;;
2019;SDS011;1014;51.960;8.542;2023-08-21T13:06:58;23.67;;;21.90;;
2019;SDS011;1014;51.960;8.542;2023-08-21T13:09:26;22.63;;;21.07;;
2019;SDS011;1014;51.960;8.542;2023-08-21T13:11:53;22.70;;;21.10;;
2019;SDS011;1014;51.960;8.542;2023-08-21T13:14:20;22.47;;;20.87;;
2019;SDS011;1014;51.960;8.542;2023-08-21T13:16:48;22.77;;;21.33;;
2019;SDS011;1014;51.960;8.542;2023-08-21T13:19:15;23.33;;;21.67;;
2019;SDS011;1014;51.960;8.542;2023-08-21T13:21:43;23.40;;;21.90;;
2019;SDS011;1014;51.960;8.542;2023-08-21T13:24:10;24.00;;;22.20;;
2019;SDS011;1014;51.960;8.542;2023-08-21T13:26:37;22.67;;;21.17;;
2019;SDS011;1014;51.960;8.542;2023-08-21T13:29:04;22.77;;;21.37;;
2019;SDS011;1014;51.960;8.542;2023-08-21T13:31:32;22.50;;;21.03;;
2019;SDS011;1014;51.960;8.542;2023-08-21T13:33:59;23.90;;;22.13;;
2019;SDS011;1014;51.960;8.542;2023-08-21T13:36:27;23.00;;;21.37;;
2019;SDS011;1014;51.960;8.542;2023-08-21T13:38:55;23.30;;;21.60;;
2019;SDS011;1014;51.960;8.542;2023-08-21T13:41:22;23.47;;;21.97;;
2019;SDS011;1014;51.960;8.542;2023-08-21T13:43:49;22.97;;;21.57;;
2019;SDS011;1014;51.960;8.542;2023-08-21T13:46:17;23.17;;;21.67;;
2019;SDS011;1014;51.960;8.542;2023-08-21T13:48:44;24.43;;;22.70;;
2019;SDS011;1014;51.960;8.542;2023-08-21T13:51:11;23.20;;;21.53;;
2019;SDS011;1014;51.960;8.542;2023-08-21T13:53:38;24.60;;;22.63;;
2019;SDS011;1014;51.960;8.542;2023-08-21T13:56:06;24.83;;;22.90;;
2019;SDS011;1014;51.960;8.542;2023-08-21T13:58:33;23.47;;;21.80;;
2019;SDS011;1014;51.960;8.542;2023-08-21T14:01:00;23.47;;;22.10;;
2019;SDS011;1014;51.960;8.542;2023-08-21T14:03:28;23.53;;;22.03;;
2019;SDS011;1014;51.960;8.542;2023-08-21T14:05:55;23.60;;;21.90;;
2019;SDS011;1014;51.960;8.542;2023-08-21T14:08:22;24.13;;;22.30;;
2019;SDS011;1014;51.960;8.542;2023-08-21T14:10:49;24.40;;;22.80;;
2019;SDS011;1014;51.960;8.542;2023-08-21T14:13:18;23.27;;;21.53;;
2019;SDS011;1014;51.960;8.542;2023-08-21T14:15:45;24.03;;;22.37;;
2019;SDS011;1014;51.960;8.542;2023-08-21T14:18:12;24.47;;;22.57;;
2019;SDS011;1014;51.960;8.542;2023-08-21T14:20:39;23.47;;;21.87;;
2019;SDS011;1014;51.960;8.542;2023-08-21T14:23:06;24.33;;;22.40;;
2019;SDS011;1014;51.960;8.542;2023-08-21T14:25:33;24.03;;;22.53;;
2019;SDS011;1014;51.960;8.542;2023-08-21T14:28:02;23.90;;;22.20;;
2019;SDS011;1014;51.960;8.542;2023-08-21T14:30:30;23.00;;;21.57;;
2019;SDS011;1014;51.960;8.542;2023-08-21T14:32:57;23.93;;;22.43;;
2019;SDS011;1014;51.960;8.542;2023-08-21T14:35:24;23.23;;;21.73;;
2019;SDS011;1014;51.960;8.542;2023-08-21T14:37:51;24.63;;;22.93;;
2019;SDS011;1014;51.960;8.542;2023-08-21T14:40:18;23.27;;;21.77;;
2019;SDS011;1014;51.960;8.542;2023-08-21T14:42:45;23.77;;;22.27;;
2019;SDS011;1014;51.960;8.542;2023-08-21T14:45:12;23.47;;;22.07;;
2019;SDS011;1014;51.960;8.542;2023-08-21T14:47:41;24.40;;;22.77;;
2019;SDS011;1014;51.960;8.542;2023-08-21T14:50:08;24.97;;;23.20;;
2019;SDS011;1014;51.960;8.542;2023-08-21T14:52:36;23.47;;;21.77;;